Time;durP1;ratioP1;P1;durP2;ratioP2;P2;SDS_P1;SDS_P2;PMS_P1;PMS_P2;Temp;Humidity;BMP_temperature;BMP_pressure;BME280_temperature;BME280_humidity;BME280_pressure;Samples;Min_cycle;Max_cycle;Signal;HPM_P1;HPM_P2
2022/04/17 00:02:09;;;;;;;14.70;4.65;;;;;;;2.48;71.87;99935.38;5018090;28;20034;-53
2022/04/17 00:04:42;;;;;;;13.07;4.07;;;;;;;2.54;72.30;99932.84;5017918;28;20041;-54
2022/04/17 00:07:12;;;;;;;13.18;4.63;;;;;;;2.58;72.39;99963.84;5017397;28;20332;-54
2022/04/17 00:09:43;;;;;;;9.35;3.80;;;;;;;2.51;72.59;99967.22;5006381;28;20332;-54
2022/04/17 00:12:14;;;;;;;13.95;4.03;;;;;;;2.58;73.19;99960.41;5018329;28;20058;-51
2022/04/17 00:14:45;;;;;;;13.02;4.22;;;;;;;2.70;73.44;99959.69;5018090;28;20307;-52
2022/04/17 00:17:16;;;;;;;19.40;4.72;;;;;;;2.85;73.56;99954.69;5018017;28;20240;-52
2022/04/17 00:19:49;;;;;;;13.10;5.00;;;;;;;2.44;73.10;99864.84;5017739;28;20402;-53
2022/04/17 00:22:20;;;;;;;11.10;3.72;;;;;;;3.14;73.20;99956.66;5029536;28;20048;-54
2022/04/17 00:24:51;;;;;;;13.73;4.60;;;;;;;3.22;72.88;99965.34;5024313;28;20060;-54
2022/04/17 00:27:21;;;;;;;8.95;4.07;;;;;;;3.13;72.87;99968.72;5037715;28;20183;-53
2022/04/17 00:29:52;;;;;;;8.25;4.00;;;;;;;3.14;73.28;99967.00;5037724;28;20072;-54
2022/04/17 00:32:23;;;;;;;12.10;4.10;;;;;;;3.20;73.56;99954.16;5037798;28;20129;-54
2022/04/17 00:34:55;;;;;;;9.20;3.97;;;;;;;3.13;73.63;99953.22;5022923;28;20057;-54
2022/04/17 00:37:26;;;;;;;13.20;3.70;;;;;;;2.96;73.73;99937.56;5024283;28;20113;-54
2022/04/17 00:39:57;;;;;;;13.52;3.95;;;;;;;2.90;73.71;99953.03;5024091;28;20057;-55
2022/04/17 00:42:27;;;;;;;15.07;4.50;;;;;;;2.84;74.17;99947.78;5023999;28;20053;-55
2022/04/17 00:44:58;;;;;;;13.18;4.80;;;;;;;2.83;74.36;99946.06;5024208;28;20053;-55
2022/04/17 00:47:29;;;;;;;14.77;4.80;;;;;;;2.89;74.84;99930.63;5023856;28;20077;-52
2022/04/17 00:50:02;;;;;;;9.63;3.80;;;;;;;2.90;74.12;99937.53;5023993;28;20072;-54
2022/04/17 00:52:33;;;;;;;12.98;5.30;;;;;;;2.84;74.47;99952.94;5023957;28;20060;-54
2022/04/17 00:55:06;;;;;;;9.70;5.20;;;;;;;2.92;74.38;99951.31;5024107;28;20057;-53
2022/04/17 00:57:37;;;;;;;15.60;5.20;;;;;;;3.11;73.90;99941.16;5023714;28;20058;-55
2022/04/17 01:00:09;;;;;;;12.75;5.65;;;;;;;3.50;73.93;99939.75;5023741;28;20060;-54
2022/04/17 01:02:40;;;;;;;12.70;5.15;;;;;;;3.66;72.83;99920.91;5023842;28;20053;-54
2022/04/17 01:05:12;;;;;;;9.95;5.18;;;;;;;3.77;72.03;99897.69;5023938;28;20051;-55
2022/04/17 01:07:43;;;;;;;11.15;5.35;;;;;;;4.19;71.76;99951.31;5024095;28;20564;-54
2022/04/17 01:10:15;;;;;;;12.02;5.10;;;;;;;4.44;70.85;99954.00;5023921;28;20077;-56
2022/04/17 01:12:46;;;;;;;15.23;7.47;;;;;;;4.54;70.33;99950.59;5023644;28;20065;-55
2022/04/17 01:15:16;;;;;;;18.35;10.25;;;;;;;4.59;69.73;99943.72;5023539;28;20328;-54
2022/04/17 01:17:47;;;;;;;19.83;9.38;;;;;;;4.64;69.23;99936.84;5023660;28;20445;-55
2022/04/17 01:20:21;;;;;;;16.67;8.55;;;;;;;4.56;69.12;99943.72;5023574;28;20049;-56
2022/04/17 01:26:56;;;;;;;10.05;5.88;;;;;;;4.26;69.12;99896.19;5023627;28;20062;-55
2022/04/17 01:28:32;;;;;;;16.08;5.50;;;;;;;4.26;69.18;99919.47;5023334;28;20072;-55
2022/04/17 01:31:05;;;;;;;8.70;4.50;;;;;;;4.28;69.00;99927.25;5023341;28;20056;-54
2022/04/17 01:33:42;;;;;;;13.15;4.85;;;;;;;4.36;69.24;99929.84;5023383;28;20335;-54
2022/04/17 01:36:12;;;;;;;12.43;4.75;;;;;;;4.38;68.76;99922.97;5023611;28;20306;-55
2022/04/17 01:38:44;;;;;;;12.48;5.00;;;;;;;4.30;69.13;99913.44;5023550;28;20054;-55
2022/04/17 01:41:18;;;;;;;9.68;4.45;;;;;;;4.38;69.06;99910.88;5023557;28;20081;-54
2022/04/17 01:43:49;;;;;;;10.82;4.65;;;;;;;4.66;68.23;99924.75;5023294;28;20081;-54
2022/04/17 01:46:19;;;;;;;8.55;4.57;;;;;;;4.54;68.08;99919.53;5023321;28;20077;-55
2022/04/17 01:48:50;;;;;;;9.68;4.30;;;;;;;4.49;67.83;99936.78;5023220;28;20056;-56
2022/04/17 01:51:21;;;;;;;11.40;5.28;;;;;;;4.67;68.37;99923.06;5022917;28;20080;-55
2022/04/17 01:53:53;;;;;;;8.45;4.53;;;;;;;5.12;67.15;99918.78;5023238;28;20164;-55
2022/04/17 01:56:24;;;;;;;10.50;4.70;;;;;;;5.33;66.64;99912.72;5023304;28;20052;-54
2022/04/17 01:58:55;;;;;;;16.00;4.65;;;;;;;5.18;65.87;99873.00;5023228;28;20061;-56
2022/04/17 02:01:25;;;;;;;16.00;4.97;;;;;;;5.47;65.50;99905.81;5022181;28;20294;-56
2022/04/17 02:03:56;;;;;;;12.77;4.40;;;;;;;5.35;64.83;99916.19;5022913;28;20244;-54
2022/04/17 02:06:27;;;;;;;11.30;4.60;;;;;;;5.27;64.96;99912.75;5022740;28;20068;-55
2022/04/17 02:08:59;;;;;;;12.23;4.35;;;;;;;5.38;64.97;99916.19;5022562;28;21175;-55
2022/04/17 02:11:30;;;;;;;15.18;5.10;;;;;;;5.34;65.07;99904.09;5021987;28;20054;-56
2022/04/17 02:14:01;;;;;;;17.75;4.93;;;;;;;5.43;65.01;99904.09;5022927;28;20052;-54
2022/04/17 02:16:32;;;;;;;15.88;5.40;;;;;;;5.44;65.04;99900.63;5021846;28;20112;-54
2022/04/17 02:19:03;;;;;;;15.48;4.95;;;;;;;5.48;64.65;99893.72;5025112;28;20080;-54
2022/04/17 02:21:34;;;;;;;14.80;5.38;;;;;;;5.47;65.02;99900.63;5026918;28;20056;-55
2022/04/17 02:24:07;;;;;;;11.55;4.53;;;;;;;5.46;65.09;99904.06;5026624;28;20080;-55
2022/04/17 02:26:37;;;;;;;11.35;4.75;;;;;;;5.36;65.11;99902.34;5026422;28;20065;-55
2022/04/17 02:29:08;;;;;;;13.05;5.05;;;;;;;5.31;65.50;99906.69;5024286;28;20107;-56
2022/04/17 02:31:39;;;;;;;23.95;6.63;;;;;;;5.72;64.93;99900.59;5026520;28;20057;-56
2022/04/17 02:34:09;;;;;;;10.63;4.90;;;;;;;5.96;64.05;99895.34;5025910;28;20062;-55
2022/04/17 02:36:40;;;;;;;17.48;5.50;;;;;;;6.24;63.58;99900.41;5025373;28;20056;-55
2022/04/17 02:39:12;;;;;;;16.20;5.82;;;;;;;6.61;63.56;99902.81;5025857;28;20042;-55
2022/04/17 02:41:42;;;;;;;13.93;5.38;;;;;;;6.94;62.82;99895.66;5026197;28;20053;-54
2022/04/17 02:44:13;;;;;;;11.80;5.63;;;;;;;7.20;61.41;99898.06;5026599;28;20045;-54
2022/04/17 02:49:31;;;;;;;25.85;9.48;;;;;;;7.34;60.61;99894.47;5026203;28;20055;-55
2022/04/17 02:52:02;;;;;;;31.33;15.65;;;;;;;7.27;60.29;99897.16;5026011;28;20053;-55
2022/04/17 02:54:34;;;;;;;14.85;6.75;;;;;;;7.37;60.84;99890.13;5026238;28;20117;-54
2022/04/17 02:57:05;;;;;;;17.63;6.97;;;;;;;7.54;60.70;99885.63;5026097;28;20060;-55
2022/04/17 02:59:36;;;;;;;16.70;7.18;;;;;;;7.66;60.25;99877.72;5026117;28;20053;-55
2022/04/17 03:07:41;;;;;;;13.30;5.95;;;;;;;7.84;59.74;99888.75;5025899;28;20049;-56
2022/04/17 03:10:14;;;;;;;13.38;4.97;;;;;;;7.88;59.16;99896.53;5026089;28;20046;-56
2022/04/17 03:12:44;;;;;;;13.32;5.20;;;;;;;7.97;59.17;99895.56;5025964;28;20053;-56
2022/04/17 03:15:15;;;;;;;12.90;5.65;;;;;;;7.71;59.55;99882.84;5025582;28;20395;-56
2022/04/17 03:17:46;;;;;;;13.90;5.30;;;;;;;7.58;60.28;99902.91;5025826;28;20052;-56
2022/04/17 03:20:17;;;;;;;17.95;5.40;;;;;;;7.37;60.07;99892.75;5025740;28;20056;-55
2022/04/17 03:22:48;;;;;;;15.30;6.10;;;;;;;7.36;60.10;99899.66;5025674;28;20056;-56
2022/04/17 03:25:20;;;;;;;18.20;6.10;;;;;;;7.57;60.13;99888.19;5025291;28;20093;-55
2022/04/17 03:27:51;;;;;;;16.50;5.63;;;;;;;7.72;60.01;99890.63;5025447;28;20314;-56
2022/04/17 03:30:22;;;;;;;14.52;6.90;;;;;;;7.70;59.73;99882.00;5025091;28;20125;-55
2022/04/17 03:32:53;;;;;;;13.88;6.80;;;;;;;7.84;59.85;99874.03;5025303;28;20050;-56
2022/04/17 03:35:23;;;;;;;23.20;7.28;;;;;;;8.05;59.85;99872.91;5024772;28;20049;-56
2022/04/17 03:37:54;;;;;;;25.90;6.85;;;;;;;8.05;59.63;99869.47;5024928;28;20045;-56
2022/04/17 03:40:27;;;;;;;15.88;7.00;;;;;;;7.96;59.47;99857.41;5025441;28;20053;-56
2022/04/17 03:42:58;;;;;;;22.45;8.38;;;;;;;8.05;59.30;99867.72;5025138;28;20364;-56
2022/04/17 03:45:28;;;;;;;13.65;6.25;;;;;;;8.07;58.78;99865.97;5024709;28;20382;-55
2022/04/17 03:48:00;;;;;;;24.52;6.72;;;;;;;8.08;58.68;99864.22;5025142;28;20062;-54
2022/04/17 03:50:30;;;;;;;20.58;8.10;;;;;;;8.15;58.89;99853.69;5025102;28;20055;-56
2022/04/17 03:53:01;;;;;;;16.35;7.32;;;;;;;8.32;58.46;99855.22;5025146;28;20059;-55
2022/04/17 03:55:33;;;;;;;18.38;7.60;;;;;;;8.38;58.48;99855.13;5024840;28;20923;-55
2022/04/17 03:58:04;;;;;;;26.08;7.32;;;;;;;8.34;58.08;99853.47;5024785;28;20052;-56
2022/04/17 04:00:34;;;;;;;28.50;10.20;;;;;;;8.46;58.23;99853.31;5024902;28;20054;-56
2022/04/17 04:03:06;;;;;;;33.17;13.57;;;;;;;8.46;57.14;99835.06;5024429;28;20048;-56
2022/04/17 04:05:37;;;;;;;50.85;13.18;;;;;;;8.60;56.71;99851.38;5024942;28;20054;-56
2022/04/17 04:08:09;;;;;;;194.77;61.58;;;;;;;8.61;56.15;99855.72;5024769;28;20057;-56
2022/04/17 04:10:41;;;;;;;63.85;20.73;;;;;;;8.62;56.86;99849.59;5024618;28;20049;-56
2022/04/17 04:13:12;;;;;;;93.03;34.38;;;;;;;8.76;56.91;99841.59;5025031;28;20064;-56
2022/04/17 04:15:43;;;;;;;103.55;33.40;;;;;;;8.78;56.61;99849.38;5024591;28;20067;-56
2022/04/17 04:18:14;;;;;;;51.13;18.92;;;;;;;8.77;56.42;99840.69;5025098;28;20057;-56
2022/04/17 04:20:44;;;;;;;91.65;29.65;;;;;;;8.75;56.53;99844.22;5024773;28;20149;-56
2022/04/17 04:23:15;;;;;;;41.63;14.93;;;;;;;8.82;56.54;99840.63;5024238;28;20049;-56
2022/04/17 04:25:47;;;;;;;33.15;13.35;;;;;;;8.92;55.96;99836.13;5023865;28;20061;-56
2022/04/17 04:28:36;;;;;;;55.55;21.65;;;;;;;9.00;55.44;99840.31;5024375;28;20057;-56
2022/04/17 04:31:07;;;;;;;46.85;17.55;;;;;;;9.02;54.82;99817.69;5023897;28;20057;-57
2022/04/17 04:33:39;;;;;;;14.35;5.72;;;;;;;9.31;53.80;99836.31;5023824;28;20053;-56
2022/04/17 04:36:12;;;;;;;17.67;7.70;;;;;;;9.35;52.55;99820.59;5024423;28;20046;-56
2022/04/17 04:38:42;;;;;;;34.17;14.13;;;;;;;9.40;51.89;99823.97;5024217;28;20328;-56
2022/04/17 04:41:15;;;;;;;19.15;7.35;;;;;;;9.42;52.32;99830.03;5023617;28;20064;-56
2022/04/17 04:43:45;;;;;;;40.03;18.95;;;;;;;9.42;51.82;99824.81;5024283;28;20403;-56
2022/04/17 04:46:14;;;;;;;17.70;7.70;;;;;;;9.39;51.55;99830.09;5023755;28;20212;-56
2022/04/17 04:51:34;;;;;;;16.75;8.77;;;;;;;9.29;52.28;99836.38;5023707;28;20068;-57
2022/04/17 04:54:07;;;;;;;13.98;6.25;;;;;;;9.35;52.51;99831.03;5024046;28;20060;-57
2022/04/17 04:56:39;;;;;;;18.95;8.13;;;;;;;9.40;52.51;99834.41;5023814;28;20332;-56
2022/04/17 04:59:10;;;;;;;15.10;5.63;;;;;;;9.31;52.22;99813.72;5024048;28;20096;-56
2022/04/17 05:01:40;;;;;;;24.35;12.57;;;;;;;9.49;51.71;99823.81;5023887;28;21016;-56
2022/04/17 05:04:11;;;;;;;16.75;6.60;;;;;;;9.59;51.07;99823.66;5023937;28;20049;-56
2022/04/17 05:06:42;;;;;;;10.90;5.47;;;;;;;9.63;50.08;99835.72;5023945;28;20053;-56
2022/04/17 05:09:13;;;;;;;11.35;4.97;;;;;;;9.69;49.09;99819.97;5023406;28;20045;-56
2022/04/17 05:11:46;;;;;;;13.30;4.35;;;;;;;9.73;47.79;99824.22;5023854;28;20042;-57
2022/04/17 05:14:20;;;;;;;8.98;3.78;;;;;;;9.69;47.45;99820.81;5023124;28;20058;-57
2022/04/17 05:16:50;;;;;;;8.95;4.03;;;;;;;9.71;48.04;99828.63;5023622;28;20246;-57
2022/04/17 05:19:24;;;;;;;14.38;5.45;;;;;;;9.72;48.05;99819.91;5023756;28;20321;-56
2022/04/17 05:21:57;;;;;;;12.43;5.38;;;;;;;9.80;48.58;99815.38;5023602;28;20046;-57
2022/04/17 05:24:28;;;;;;;18.35;6.20;;;;;;;9.77;48.44;99810.22;5023700;28;20062;-57
2022/04/17 05:27:00;;;;;;;13.48;6.65;;;;;;;9.87;48.91;99824.78;5023494;28;20053;-56
2022/04/17 05:29:31;;;;;;;7.03;3.95;;;;;;;9.75;46.62;99798.94;5023336;28;20424;-57
2022/04/17 05:32:02;;;;;;;3.65;1.92;;;;;;;9.82;42.72;99820.56;5023460;28;20052;-57
2022/04/17 05:34:32;;;;;;;4.43;2.50;;;;;;;9.79;37.28;99816.28;5023348;28;20075;-57
2022/04/17 05:37:03;;;;;;;4.40;2.63;;;;;;;9.66;37.65;99817.38;5023519;28;20041;-56
2022/04/17 05:39:34;;;;;;;3.67;2.13;;;;;;;9.65;38.22;99823.50;5023290;28;20387;-57
2022/04/17 05:42:06;;;;;;;3.70;2.00;;;;;;;9.70;37.89;99816.44;5023332;28;20056;-57
2022/04/17 05:44:38;;;;;;;2.25;1.73;;;;;;;9.68;37.19;99823.44;5023467;28;20042;-56
2022/04/17 05:47:09;;;;;;;5.93;1.80;;;;;;;9.61;35.47;99827.06;5022941;28;20054;-56
2022/04/17 05:49:40;;;;;;;2.25;1.77;;;;;;;9.49;36.50;99820.34;5023511;28;20046;-56
2022/04/17 05:52:11;;;;;;;6.85;1.80;;;;;;;9.45;36.16;99827.34;5024423;28;20045;-56
2022/04/17 05:54:43;;;;;;;4.28;1.83;;;;;;;9.35;36.09;99825.81;5027750;28;20425;-56
2022/04/17 05:57:15;;;;;;;3.88;1.63;;;;;;;9.27;35.93;99822.50;5027554;28;20276;-57
2022/04/17 05:59:46;;;;;;;44.05;3.17;;;;;;;9.26;36.36;99836.38;5026232;28;20582;-56
2022/04/17 06:02:17;;;;;;;31.40;3.63;;;;;;;9.22;35.86;99829.53;5026264;28;20072;-56
2022/04/17 06:04:48;;;;;;;2.92;1.70;;;;;;;9.18;36.23;99817.44;5026461;28;20311;-56
2022/04/17 06:07:27;;;;;;;3.45;1.75;;;;;;;9.19;35.47;99837.41;5026222;28;20289;-56
2022/04/17 06:10:02;;;;;;;4.05;1.73;;;;;;;9.19;35.18;99840.03;5026085;28;20065;-56
2022/04/17 06:12:34;;;;;;;1.77;1.30;;;;;;;9.10;35.40;99835.81;5027133;28;20067;-57
2022/04/17 06:15:06;;;;;;;4.47;1.50;;;;;;;9.06;35.44;99845.44;5026966;28;20132;-56
2022/04/17 06:17:40;;;;;;;2.78;1.30;;;;;;;9.02;35.79;99846.38;5026713;28;20249;-57
2022/04/17 06:20:12;;;;;;;3.35;1.80;;;;;;;8.99;36.01;99842.97;5027078;28;20050;-57
2022/04/17 06:22:43;;;;;;;3.40;1.73;;;;;;;8.97;35.76;99856.00;5026824;28;20054;-57
2022/04/17 06:25:15;;;;;;;3.85;1.70;;;;;;;8.86;35.04;99855.31;5026492;28;20121;-57
2022/04/17 06:27:48;;;;;;;6.63;1.83;;;;;;;8.71;35.55;99852.94;5026083;28;20049;-57
2022/04/17 06:30:20;;;;;;;5.10;1.73;;;;;;;8.76;34.98;99867.66;5027266;28;20267;-56
2022/04/17 06:32:51;;;;;;;4.75;1.83;;;;;;;8.52;35.85;99837.59;5026045;28;20057;-57
2022/04/17 06:35:22;;;;;;;2.95;1.77;;;;;;;8.66;34.80;99883.41;5026215;28;20239;-58
2022/04/17 06:37:53;;;;;;;2.20;1.60;;;;;;;8.52;34.99;99871.47;5026427;28;20061;-57
2022/04/17 06:40:25;;;;;;;19.17;1.95;;;;;;;8.57;34.39;99887.88;5026592;28;20084;-57
2022/04/17 06:43:00;;;;;;;15.13;2.05;;;;;;;8.53;33.63;99877.53;5026480;28;20053;-56
2022/04/17 06:45:31;;;;;;;2.90;2.60;;;;;;;8.51;35.33;99893.19;5026311;28;20057;-57
2022/04/17 06:48:13;;;;;;;4.95;2.25;;;;;;;8.47;34.61;99894.09;5026298;28;20058;-57
2022/04/17 06:50:44;;;;;;;5.15;2.20;;;;;;;8.39;35.68;99898.53;5026308;28;20081;-57
2022/04/17 06:53:16;;;;;;;1.70;1.60;;;;;;;7.98;35.77;99834.84;5025795;28;20049;-57
2022/04/17 06:55:47;;;;;;;13.23;2.35;;;;;;;8.37;36.08;99882.06;5026143;28;20048;-56
2022/04/17 06:58:20;;;;;;;4.95;1.80;;;;;;;8.43;35.60;99895.00;5026227;28;20307;-57
2022/04/17 07:00:50;;;;;;;3.55;1.55;;;;;;;8.41;36.34;99912.38;5025588;28;20120;-57
2022/04/17 07:03:21;;;;;;;10.50;2.45;;;;;;;8.40;35.85;99915.88;5025483;28;20064;-57
2022/04/17 07:05:52;;;;;;;9.32;2.72;;;;;;;8.38;35.64;99915.00;5025211;28;20674;-58
2022/04/17 07:08:23;;;;;;;2.67;1.75;;;;;;;8.39;35.76;99901.13;5025336;28;20643;-58
2022/04/17 07:10:53;;;;;;;14.48;1.92;;;;;;;8.18;35.63;99871.88;5025386;28;20068;-58
2022/04/17 07:13:26;;;;;;;32.95;3.28;;;;;;;8.43;36.32;99911.50;5025654;28;20060;-58
2022/04/17 07:15:56;;;;;;;3.78;1.88;;;;;;;8.45;36.00;99918.44;5025885;28;20089;-57
2022/04/17 07:18:27;;;;;;;2.38;1.60;;;;;;;8.44;36.51;99917.59;5026215;28;20095;-57
2022/04/17 07:20:58;;;;;;;2.92;1.88;;;;;;;8.45;36.50;99924.50;5025915;28;20051;-57
2022/04/17 07:23:28;;;;;;;20.73;2.97;;;;;;;8.45;36.88;99924.50;5025593;28;20046;-58
2022/04/17 07:25:59;;;;;;;3.10;2.10;;;;;;;8.43;36.10;99918.44;5025623;28;20064;-57
2022/04/17 07:28:31;;;;;;;13.50;2.63;;;;;;;8.40;36.06;99921.94;5025327;28;20049;-57
2022/04/17 07:31:01;;;;;;;9.00;3.50;;;;;;;8.41;35.69;99928.00;5025378;28;20336;-57
2022/04/17 07:33:32;;;;;;;7.25;3.47;;;;;;;8.38;36.09;99933.22;5025094;28;20066;-57
2022/04/17 07:36:03;;;;;;;15.40;3.05;;;;;;;8.35;36.31;99925.47;5025355;28;20053;-57
2022/04/17 07:38:33;;;;;;;5.13;1.70;;;;;;;8.23;35.84;99923.00;5025332;28;20063;-57
2022/04/17 07:41:05;;;;;;;4.72;2.20;;;;;;;8.34;36.74;99926.38;5025294;28;20053;-57
2022/04/17 07:43:37;;;;;;;4.38;2.00;;;;;;;8.30;36.42;99935.06;5025296;28;20068;-57
2022/04/17 07:46:07;;;;;;;21.63;2.10;;;;;;;8.27;35.84;99935.13;5025153;28;20209;-57
2022/04/17 07:48:38;;;;;;;2.42;1.80;;;;;;;8.31;35.50;99942.00;5024864;28;20061;-57
2022/04/17 07:51:09;;;;;;;4.68;2.45;;;;;;;8.37;35.70;99936.72;5025377;28;20053;-57
2022/04/17 07:53:39;;;;;;;3.90;1.60;;;;;;;8.28;35.77;99942.03;5025181;28;20071;-57
2022/04/17 07:56:10;;;;;;;4.78;2.58;;;;;;;8.16;35.48;99938.72;5025246;28;20058;-58
2022/04/17 07:58:43;;;;;;;5.28;1.75;;;;;;;7.87;35.27;99904.38;5025164;28;20064;-58
2022/04/17 08:01:15;;;;;;;9.77;2.30;;;;;;;8.04;36.17;99944.06;5025398;28;20480;-58
2022/04/17 08:03:49;;;;;;;6.05;1.83;;;;;;;8.00;35.62;99942.38;5024987;28;20355;-58
2022/04/17 08:06:22;;;;;;;9.38;2.10;;;;;;;7.73;36.41;99912.31;5024989;28;20085;-58
2022/04/17 08:08:53;;;;;;;4.95;2.10;;;;;;;7.91;35.76;99943.34;5024839;28;20236;-58
2022/04/17 08:11:25;;;;;;;17.98;2.80;;;;;;;7.86;35.33;99944.25;5024499;28;20046;-58
2022/04/17 08:13:57;;;;;;;7.70;2.70;;;;;;;7.78;36.47;99946.94;5024166;28;20049;-58
2022/04/17 08:16:28;;;;;;;3.60;2.00;;;;;;;7.76;36.58;99946.97;5024568;28;20061;-59
2022/04/17 08:18:58;;;;;;;13.77;2.83;;;;;;;7.62;37.44;99946.22;5024715;28;20336;-58
2022/04/17 08:21:29;;;;;;;5.22;2.85;;;;;;;7.52;37.93;99944.59;5024313;28;20069;-58
2022/04/17 08:24:00;;;;;;;8.35;3.38;;;;;;;7.41;37.83;99946.41;5024417;28;20057;-58
2022/04/17 08:26:31;;;;;;;8.70;3.95;;;;;;;7.33;37.68;99949.91;5024254;28;20065;-58
2022/04/17 08:29:03;;;;;;;4.80;2.83;;;;;;;7.23;37.27;99948.28;5024297;28;20057;-58
2022/04/17 08:31:34;;;;;;;28.13;3.75;;;;;;;7.16;38.00;99943.13;5022828;28;20476;-58
2022/04/17 08:34:04;;;;;;;15.20;2.33;;;;;;;7.12;37.94;99950.97;5023342;28;20053;-58
2022/04/17 08:36:35;;;;;;;13.02;2.47;;;;;;;7.01;37.84;99949.31;5024077;28;20208;-58
2022/04/17 08:39:06;;;;;;;6.68;2.30;;;;;;;6.95;38.13;99954.56;5024141;28;20705;-57
2022/04/17 08:41:36;;;;;;;17.60;2.85;;;;;;;6.82;38.17;99948.59;5024124;28;20076;-58
2022/04/17 08:44:09;;;;;;;3.53;1.67;;;;;;;6.63;38.23;99950.41;5024026;28;20058;-58
2022/04/17 08:46:40;;;;;;;9.05;3.95;;;;;;;6.46;38.81;99951.38;5023995;28;20050;-61
2022/04/17 08:49:12;;;;;;;10.40;3.80;;;;;;;6.33;39.65;99957.47;5023969;28;20053;-57
2022/04/17 08:51:48;;;;;;;6.72;2.45;;;;;;;6.27;40.28;99960.09;5024512;28;20049;-57
2022/04/17 08:54:19;;;;;;;35.58;5.05;;;;;;;6.19;40.50;99959.25;5023788;28;20240;-57
2022/04/17 08:56:49;;;;;;;11.65;3.70;;;;;;;6.10;40.83;99961.88;5024061;28;20061;-57
2022/04/17 08:59:22;;;;;;;5.65;2.28;;;;;;;6.03;40.95;99964.47;5023742;28;20103;-57
2022/04/17 09:01:52;;;;;;;15.00;4.60;;;;;;;5.91;41.48;99958.44;5023278;28;20053;-57
2022/04/17 09:04:23;;;;;;;13.68;5.47;;;;;;;5.84;41.79;99962.75;5023683;28;20066;-57
2022/04/17 09:06:54;;;;;;;14.45;7.70;;;;;;;5.69;42.27;99974.03;5023385;28;20045;-57
2022/04/17 09:09:25;;;;;;;11.35;8.15;;;;;;;5.58;42.50;99975.75;5023612;28;20115;-57
2022/04/17 09:11:56;;;;;;;16.17;5.90;;;;;;;4.85;42.64;99847.16;5023834;28;20053;-57
2022/04/17 09:14:29;;;;;;;17.10;4.82;;;;;;;5.55;42.81;99976.63;5023104;28;20062;-57
2022/04/17 09:17:00;;;;;;;9.13;4.60;;;;;;;5.54;42.40;99982.69;5023465;28;20065;-57
2022/04/17 09:19:31;;;;;;;59.92;15.10;;;;;;;5.46;42.25;99987.00;5023113;28;20046;-57
2022/04/17 09:22:02;;;;;;;14.75;6.97;;;;;;;5.38;43.06;99984.41;5023076;28;20057;-57
2022/04/17 09:24:37;;;;;;;22.92;4.82;;;;;;;5.33;42.89;99998.22;5022830;28;20062;-58
2022/04/17 09:27:09;;;;;;;8.75;4.07;;;;;;;5.34;43.13;99999.94;5022957;28;20046;-58
2022/04/17 09:29:42;;;;;;;5.75;3.35;;;;;;;5.32;42.88;100004.28;5023384;28;20061;-57
2022/04/17 09:32:14;;;;;;;6.10;3.70;;;;;;;5.30;42.54;100016.38;5023662;28;20045;-57
2022/04/17 09:34:47;;;;;;;8.77;5.05;;;;;;;5.00;42.54;99981.78;5023546;28;20135;-57
2022/04/17 09:37:18;;;;;;;42.95;18.45;;;;;;;4.91;42.21;99971.41;5023002;28;20053;-57
2022/04/17 09:39:50;;;;;;;84.35;33.95;;;;;;;4.91;42.40;99986.94;5023307;28;20062;-58
2022/04/17 09:42:23;;;;;;;91.25;37.35;;;;;;;5.13;42.45;100035.31;5023374;28;20275;-58
2022/04/17 09:44:55;;;;;;;67.43;30.33;;;;;;;5.08;43.23;100026.69;5023463;28;20275;-58
2022/04/17 09:47:27;;;;;;;60.38;17.05;;;;;;;4.84;43.34;99996.44;5023120;28;20345;-57
2022/04/17 09:50:03;;;;;;;38.08;12.02;;;;;;;5.09;44.70;100043.97;5023676;28;20061;-57
2022/04/17 09:52:35;;;;;;;12.27;4.57;;;;;;;5.02;44.56;100051.69;5022447;28;20244;-57
2022/04/17 09:55:06;;;;;;;7.63;3.72;;;;;;;4.83;45.87;100051.63;5022617;28;20367;-57
2022/04/17 09:57:38;;;;;;;8.27;4.15;;;;;;;4.73;46.10;100053.31;5023026;28;20121;-57
2022/04/17 10:00:13;;;;;;;37.30;5.15;;;;;;;4.70;46.28;100053.31;5022680;28;20054;-58
2022/04/17 10:02:46;;;;;;;7.78;3.28;;;;;;;4.79;46.17;100059.38;5023517;28;20069;-57
2022/04/17 10:05:17;;;;;;;9.35;3.50;;;;;;;4.83;46.36;100055.97;5022884;28;20049;-57
2022/04/17 10:07:49;;;;;;;13.13;5.40;;;;;;;4.91;46.35;100064.59;5023035;28;20042;-57
2022/04/17 10:10:20;;;;;;;26.20;5.07;;;;;;;4.72;46.38;100038.66;5023073;28;20378;-58
2022/04/17 10:12:51;;;;;;;10.57;4.15;;;;;;;4.87;46.59;100062.88;5021311;28;20059;-57
2022/04/17 10:15:24;;;;;;;5.68;3.25;;;;;;;4.88;46.57;100072.38;5022827;28;20053;-57
2022/04/17 10:18:00;;;;;;;8.57;3.47;;;;;;;4.92;46.57;100066.34;5022741;28;20120;-57
2022/04/17 10:20:32;;;;;;;16.45;3.30;;;;;;;4.87;46.87;100062.88;5022733;28;20049;-58
2022/04/17 10:23:07;;;;;;;4.50;3.40;;;;;;;4.76;46.66;100040.38;5022825;28;20049;-57
2022/04/17 10:25:41;;;;;;;6.95;3.83;;;;;;;4.86;46.79;100066.31;5021325;28;20050;-57
2022/04/17 10:28:14;;;;;;;8.20;3.70;;;;;;;4.82;47.11;100064.56;5022920;28;20049;-57
2022/04/17 10:30:59;;;;;;;64.53;5.53;;;;;;;4.71;47.61;100065.38;5022638;28;20053;-56
2022/04/17 10:33:55;;;;;;;11.43;3.60;;;;;;;4.71;47.80;100067.97;5022434;28;20053;-56
2022/04/17 10:36:41;;;;;;;7.22;3.40;;;;;;;4.62;47.89;100075.72;5020503;28;20049;-57
2022/04/17 10:39:20;;;;;;;9.50;4.00;;;;;;;4.69;48.08;100074.91;5023146;28;20061;-56
2022/04/17 10:41:51;;;;;;;20.25;4.50;;;;;;;4.45;47.85;100044.59;5026414;28;20061;-57
2022/04/17 10:44:29;;;;;;;17.17;4.50;;;;;;;4.56;48.19;100078.25;5026092;28;20076;-57
2022/04/17 10:47:05;;;;;;;7.72;4.10;;;;;;;4.17;48.56;100027.16;5026244;28;20236;-57
2022/04/17 10:49:54;;;;;;;10.55;4.35;;;;;;;4.47;48.57;100079.09;5025700;28;20300;-56
2022/04/17 10:52:30;;;;;;;10.02;4.40;;;;;;;3.87;48.32;99967.56;5025647;28;20046;-56
2022/04/17 10:55:10;;;;;;;9.57;4.13;;;;;;;4.50;48.88;100088.59;5025962;28;20073;-56
2022/04/17 10:57:45;;;;;;;6.97;3.78;;;;;;;4.42;49.49;100091.16;5025923;28;20073;-56
2022/04/17 11:00:36;;;;;;;6.88;3.60;;;;;;;4.35;49.86;100088.50;5026208;28;20055;-56
2022/04/17 11:03:26;;;;;;;5.25;2.95;;;;;;;4.39;49.77;100085.94;5025818;28;20057;-56
2022/04/17 11:08:52;;;;;;;4.72;3.25;;;;;;;4.32;50.24;100090.22;5011221;28;20275;-56
2022/04/17 11:11:23;;;;;;;7.68;3.47;;;;;;;4.39;49.95;100090.25;5025624;28;20054;-56
2022/04/17 11:14:13;;;;;;;6.53;3.08;;;;;;;4.33;50.50;100091.94;5025753;28;20049;-55
2022/04/17 11:16:48;;;;;;;6.45;3.20;;;;;;;4.22;50.45;100083.25;5025890;28;20072;-56
2022/04/17 11:19:21;;;;;;;7.05;3.10;;;;;;;4.22;50.31;100088.44;5025399;28;20061;-57
2022/04/17 11:21:54;;;;;;;12.73;4.38;;;;;;;3.58;54.69;100046.59;5025664;28;20438;-56
2022/04/17 11:24:25;;;;;;;12.23;4.40;;;;;;;3.15;56.29;100093.53;5025723;28;20372;-56
2022/04/17 11:27:12;;;;;;;13.25;4.35;;;;;;;2.61;58.60;100101.47;5025263;28;20066;-56
2022/04/17 11:29:45;;;;;;;13.95;5.07;;;;;;;2.39;60.16;100108.91;5025563;28;20388;-56
2022/04/17 11:32:47;;;;;;;20.75;6.57;;;;;;;2.10;61.87;100106.75;5024990;28;20049;-56
2022/04/17 11:35:22;;;;;;;15.05;5.63;;;;;;;1.96;62.77;100113.41;5025013;28;20141;-56
2022/04/17 11:37:57;;;;;;;21.70;6.05;;;;;;;1.93;63.86;100108.22;5025310;28;20054;-56
2022/04/17 11:40:31;;;;;;;16.73;5.55;;;;;;;1.84;63.88;100102.91;5025134;28;20053;-56
2022/04/17 11:43:13;;;;;;;15.35;5.82;;;;;;;1.89;64.37;100106.41;5024956;28;20062;-56
2022/04/17 11:45:44;;;;;;;16.15;5.95;;;;;;;1.78;64.46;100097.66;5025397;28;20060;-56
2022/04/17 11:48:18;;;;;;;19.08;6.68;;;;;;;1.68;64.78;100118.09;5025195;28;20066;-56
2022/04/17 11:50:56;;;;;;;18.35;6.75;;;;;;;1.08;65.16;100028.66;5024604;28;20291;-56
2022/04/17 11:53:27;;;;;;;19.25;6.55;;;;;;;1.54;66.02;100114.41;5025111;28;20045;-54
2022/04/17 11:55:57;;;;;;;21.20;6.30;;;;;;;1.48;66.02;100119.47;5024510;28;20049;-57
2022/04/17 11:58:29;;;;;;;18.15;6.68;;;;;;;1.37;66.00;100115.81;5024940;28;20100;-57
2022/04/17 12:01:01;;;;;;;16.20;7.00;;;;;;;1.16;66.37;100112.00;5024933;28;20041;-57
2022/04/17 12:03:36;;;;;;;19.20;7.43;;;;;;;1.07;66.77;100116.97;5024669;28;20103;-56
2022/04/17 12:06:09;;;;;;;17.50;7.40;;;;;;;0.80;67.27;100118.16;5024721;28;20077;-56
2022/04/17 12:08:42;;;;;;;20.67;7.60;;;;;;;0.62;68.90;100113.50;5024531;28;20320;-56
2022/04/17 12:11:12;;;;;;;16.88;7.70;;;;;;;0.60;70.20;100109.13;5024059;28;20045;-56
2022/04/17 12:13:43;;;;;;;22.70;7.88;;;;;;;0.65;70.66;100110.13;5025206;28;20053;-56
2022/04/17 12:16:14;;;;;;;25.00;7.65;;;;;;;0.72;71.09;100109.41;5025046;28;20510;-56